sensor_id;sensor_type;location;lat;lon;timestamp;temperature;humidity
15072;DHT22;7635;56.696;13.002;2023-04-24T00:10:45;5.60;99.90
15072;DHT22;7635;56.696;13.002;2023-04-24T00:23:38;5.60;99.90
15072;DHT22;7635;56.696;13.002;2023-04-24T00:26:33;5.60;99.90
15072;DHT22;7635;56.696;13.002;2023-04-24T00:29:41;5.50;99.90
15072;DHT22;7635;56.696;13.002;2023-04-24T00:32:50;5.60;99.90
15072;DHT22;7635;56.696;13.002;2023-04-24T00:35:43;5.60;99.90
15072;DHT22;7635;56.696;13.002;2023-04-24T00:38:45;5.50;99.90
15072;DHT22;7635;56.696;13.002;2023-04-24T00:41:32;5.50;99.90
15072;DHT22;7635;56.696;13.002;2023-04-24T00:44:24;5.50;99.90
15072;DHT22;7635;56.696;13.002;2023-04-24T00:47:19;5.50;99.90
15072;DHT22;7635;56.696;13.002;2023-04-24T00:50:06;5.50;99.90
15072;DHT22;7635;56.696;13.002;2023-04-24T00:53:01;5.50;99.90
15072;DHT22;7635;56.696;13.002;2023-04-24T00:58:38;5.50;99.90
15072;DHT22;7635;56.696;13.002;2023-04-24T01:01:59;5.50;99.90
15072;DHT22;7635;56.696;13.002;2023-04-24T01:04:55;5.50;99.90
15072;DHT22;7635;56.696;13.002;2023-04-24T01:07:37;5.50;99.90
15072;DHT22;7635;56.696;13.002;2023-04-24T01:10:30;5.50;99.90
15072;DHT22;7635;56.696;13.002;2023-04-24T01:13:22;5.50;99.90
15072;DHT22;7635;56.696;13.002;2023-04-24T01:16:17;5.50;99.90
15072;DHT22;7635;56.696;13.002;2023-04-24T01:18:55;5.50;99.90
15072;DHT22;7635;56.696;13.002;2023-04-24T01:21:40;5.50;99.90
15072;DHT22;7635;56.696;13.002;2023-04-24T01:24:25;5.50;99.90
15072;DHT22;7635;56.696;13.002;2023-04-24T01:27:02;5.50;99.90
15072;DHT22;7635;56.696;13.002;2023-04-24T01:29:44;5.40;99.90
15072;DHT22;7635;56.696;13.002;2023-04-24T01:32:52;5.40;99.90
15072;DHT22;7635;56.696;13.002;2023-04-24T01:35:41;5.40;99.90
15072;DHT22;7635;56.696;13.002;2023-04-24T01:39:01;5.40;99.90
15072;DHT22;7635;56.696;13.002;2023-04-24T01:44:34;5.50;99.90
15072;DHT22;7635;56.696;13.002;2023-04-24T01:47:16;5.60;99.90
15072;DHT22;7635;56.696;13.002;2023-04-24T01:50:19;5.60;99.90
15072;DHT22;7635;56.696;13.002;2023-04-24T01:53:13;5.60;99.90
15072;DHT22;7635;56.696;13.002;2023-04-24T01:56:23;5.60;99.90
15072;DHT22;7635;56.696;13.002;2023-04-24T01:59:23;5.60;99.90
15072;DHT22;7635;56.696;13.002;2023-04-24T02:02:13;5.60;99.90
15072;DHT22;7635;56.696;13.002;2023-04-24T02:04:56;5.70;99.90
15072;DHT22;7635;56.696;13.002;2023-04-24T02:07:48;5.70;99.90
15072;DHT22;7635;56.696;13.002;2023-04-24T02:13:24;5.70;99.90
15072;DHT22;7635;56.696;13.002;2023-04-24T02:16:19;5.70;99.90
15072;DHT22;7635;56.696;13.002;2023-04-24T02:19:10;5.70;99.90
15072;DHT22;7635;56.696;13.002;2023-04-24T02:22:12;5.70;99.90
15072;DHT22;7635;56.696;13.002;2023-04-24T02:28:09;5.70;99.90
15072;DHT22;7635;56.696;13.002;2023-04-24T02:31:22;5.60;99.90
15072;DHT22;7635;56.696;13.002;2023-04-24T02:37:02;5.50;99.90
15072;DHT22;7635;56.696;13.002;2023-04-24T02:39:37;5.50;99.90
15072;DHT22;7635;56.696;13.002;2023-04-24T02:42:13;5.40;99.90
15072;DHT22;7635;56.696;13.002;2023-04-24T02:44:57;5.40;99.90
15072;DHT22;7635;56.696;13.002;2023-04-24T02:48:10;5.40;99.90
15072;DHT22;7635;56.696;13.002;2023-04-24T02:57:20;5.50;99.90
15072;DHT22;7635;56.696;13.002;2023-04-24T03:00:15;5.60;99.90
15072;DHT22;7635;56.696;13.002;2023-04-24T03:02:58;5.60;99.90
15072;DHT22;7635;56.696;13.002;2023-04-24T03:05:58;5.70;99.90
15072;DHT22;7635;56.696;13.002;2023-04-24T03:08:44;5.70;99.90
15072;DHT22;7635;56.696;13.002;2023-04-24T03:14:17;5.70;99.90
15072;DHT22;7635;56.696;13.002;2023-04-24T03:16:53;5.80;99.90
15072;DHT22;7635;56.696;13.002;2023-04-24T03:20:51;5.80;99.90
15072;DHT22;7635;56.696;13.002;2023-04-24T03:23:00;5.80;99.90
15072;DHT22;7635;56.696;13.002;2023-04-24T03:25:36;5.80;99.90
15072;DHT22;7635;56.696;13.002;2023-04-24T03:28:32;5.80;99.90
15072;DHT22;7635;56.696;13.002;2023-04-24T03:31:08;5.90;99.90
15072;DHT22;7635;56.696;13.002;2023-04-24T03:34:13;5.90;99.90
15072;DHT22;7635;56.696;13.002;2023-04-24T03:36:50;5.90;99.90
15072;DHT22;7635;56.696;13.002;2023-04-24T03:39:31;5.90;99.90
15072;DHT22;7635;56.696;13.002;2023-04-24T03:42:22;5.90;99.90
15072;DHT22;7635;56.696;13.002;2023-04-24T03:45:25;6.00;99.90
15072;DHT22;7635;56.696;13.002;2023-04-24T03:48:37;6.00;99.90
15072;DHT22;7635;56.696;13.002;2023-04-24T03:51:14;6.00;99.90
15072;DHT22;7635;56.696;13.002;2023-04-24T03:53:47;6.00;99.90
15072;DHT22;7635;56.696;13.002;2023-04-24T03:56:46;6.10;99.90
15072;DHT22;7635;56.696;13.002;2023-04-24T03:59:18;6.10;99.90
15072;DHT22;7635;56.696;13.002;2023-04-24T04:02:11;6.10;99.90
15072;DHT22;7635;56.696;13.002;2023-04-24T04:04:48;6.10;99.90
15072;DHT22;7635;56.696;13.002;2023-04-24T04:07:30;6.10;99.90
15072;DHT22;7635;56.696;13.002;2023-04-24T04:13:21;6.20;99.90
15072;DHT22;7635;56.696;13.002;2023-04-24T04:16:11;6.20;99.90
15072;DHT22;7635;56.696;13.002;2023-04-24T04:18:56;6.20;99.90
15072;DHT22;7635;56.696;13.002;2023-04-24T04:21:43;6.30;99.90
15072;DHT22;7635;56.696;13.002;2023-04-24T04:27:50;6.40;99.90
15072;DHT22;7635;56.696;13.002;2023-04-24T04:30:30;6.40;99.90
15072;DHT22;7635;56.696;13.002;2023-04-24T04:36:23;6.50;99.90
15072;DHT22;7635;56.696;13.002;2023-04-24T04:39:01;6.50;99.90
15072;DHT22;7635;56.696;13.002;2023-04-24T04:42:09;6.60;99.90
15072;DHT22;7635;56.696;13.002;2023-04-24T04:44:48;6.60;99.90
15072;DHT22;7635;56.696;13.002;2023-04-24T04:53:07;6.70;99.90
15072;DHT22;7635;56.696;13.002;2023-04-24T04:55:53;6.80;99.90
15072;DHT22;7635;56.696;13.002;2023-04-24T05:01:57;6.90;99.90
15072;DHT22;7635;56.696;13.002;2023-04-24T05:04:49;7.00;99.90
15072;DHT22;7635;56.696;13.002;2023-04-24T05:07:40;7.00;99.90
15072;DHT22;7635;56.696;13.002;2023-04-24T05:10:17;7.10;99.90
15072;DHT22;7635;56.696;13.002;2023-04-24T05:19:59;7.30;99.90
15072;DHT22;7635;56.696;13.002;2023-04-24T05:22:42;7.40;99.90
15072;DHT22;7635;56.696;13.002;2023-04-24T05:25:16;7.40;99.90
15072;DHT22;7635;56.696;13.002;2023-04-24T05:27:58;7.50;99.90
15072;DHT22;7635;56.696;13.002;2023-04-24T05:33:40;7.60;99.90
15072;DHT22;7635;56.696;13.002;2023-04-24T05:36:28;7.60;99.90
15072;DHT22;7635;56.696;13.002;2023-04-24T05:39:02;7.70;99.90
15072;DHT22;7635;56.696;13.002;2023-04-24T05:41:42;7.70;99.90
15072;DHT22;7635;56.696;13.002;2023-04-24T05:44:34;7.80;99.90
15072;DHT22;7635;56.696;13.002;2023-04-24T05:47:18;7.90;99.90
15072;DHT22;7635;56.696;13.002;2023-04-24T05:50:05;7.90;99.90
15072;DHT22;7635;56.696;13.002;2023-04-24T05:52:44;8.00;99.90
15072;DHT22;7635;56.696;13.002;2023-04-24T05:55:17;8.00;99.90
15072;DHT22;7635;56.696;13.002;2023-04-24T05:57:51;8.10;99.90
15072;DHT22;7635;56.696;13.002;2023-04-24T06:00:27;8.10;99.90
15072;DHT22;7635;56.696;13.002;2023-04-24T06:03:14;8.10;99.90
15072;DHT22;7635;56.696;13.002;2023-04-24T06:05:45;8.20;99.90
15072;DHT22;7635;56.696;13.002;2023-04-24T06:08:14;8.20;99.90
15072;DHT22;7635;56.696;13.002;2023-04-24T06:11:00;8.20;99.90
15072;DHT22;7635;56.696;13.002;2023-04-24T06:13:33;8.30;99.90
15072;DHT22;7635;56.696;13.002;2023-04-24T06:16:05;8.30;99.90
15072;DHT22;7635;56.696;13.002;2023-04-24T06:38:43;8.70;99.90
15072;DHT22;7635;56.696;13.002;2023-04-24T06:41:18;8.80;99.90
15072;DHT22;7635;56.696;13.002;2023-04-24T06:43:51;9.00;99.90
15072;DHT22;7635;56.696;13.002;2023-04-24T06:46:27;9.10;99.90
15072;DHT22;7635;56.696;13.002;2023-04-24T06:49:11;9.20;99.90
15072;DHT22;7635;56.696;13.002;2023-04-24T06:51:52;9.30;99.90
15072;DHT22;7635;56.696;13.002;2023-04-24T06:54:56;9.40;99.90
15072;DHT22;7635;56.696;13.002;2023-04-24T06:57:32;9.40;99.90
15072;DHT22;7635;56.696;13.002;2023-04-24T07:00:19;9.40;99.90
15072;DHT22;7635;56.696;13.002;2023-04-24T07:03:00;9.40;99.90
15072;DHT22;7635;56.696;13.002;2023-04-24T07:06:01;9.50;99.90
15072;DHT22;7635;56.696;13.002;2023-04-24T07:08:39;9.60;99.90
15072;DHT22;7635;56.696;13.002;2023-04-24T07:11:24;9.70;99.90
15072;DHT22;7635;56.696;13.002;2023-04-24T07:14:45;9.90;99.90
15072;DHT22;7635;56.696;13.002;2023-04-24T07:17:35;10.00;99.90
15072;DHT22;7635;56.696;13.002;2023-04-24T07:20:24;10.10;99.90
15072;DHT22;7635;56.696;13.002;2023-04-24T07:26:45;10.20;99.90
15072;DHT22;7635;56.696;13.002;2023-04-24T07:29:20;10.40;99.90
15072;DHT22;7635;56.696;13.002;2023-04-24T07:32:01;10.40;99.90
15072;DHT22;7635;56.696;13.002;2023-04-24T07:34:32;10.40;99.90
15072;DHT22;7635;56.696;13.002;2023-04-24T07:44:25;10.50;99.90
15072;DHT22;7635;56.696;13.002;2023-04-24T07:47:04;10.50;99.90
15072;DHT22;7635;56.696;13.002;2023-04-24T07:49:44;10.50;99.90
15072;DHT22;7635;56.696;13.002;2023-04-24T07:52:32;10.50;99.90
15072;DHT22;7635;56.696;13.002;2023-04-24T07:55:02;10.50;99.90
15072;DHT22;7635;56.696;13.002;2023-04-24T08:01:13;10.60;99.90
15072;DHT22;7635;56.696;13.002;2023-04-24T08:03:47;10.70;99.90
15072;DHT22;7635;56.696;13.002;2023-04-24T08:06:20;10.60;99.90
15072;DHT22;7635;56.696;13.002;2023-04-24T08:09:22;10.60;99.90
15072;DHT22;7635;56.696;13.002;2023-04-24T08:11:59;10.50;99.90
15072;DHT22;7635;56.696;13.002;2023-04-24T08:14:43;10.50;99.90
15072;DHT22;7635;56.696;13.002;2023-04-24T08:17:36;10.40;99.90
15072;DHT22;7635;56.696;13.002;2023-04-24T08:20:04;10.30;99.90
15072;DHT22;7635;56.696;13.002;2023-04-24T08:22:38;10.30;99.90
15072;DHT22;7635;56.696;13.002;2023-04-24T08:25:12;10.30;99.90
15072;DHT22;7635;56.696;13.002;2023-04-24T08:27:49;10.30;99.90
15072;DHT22;7635;56.696;13.002;2023-04-24T08:30:22;10.30;99.90
15072;DHT22;7635;56.696;13.002;2023-04-24T08:33:08;10.30;99.90
15072;DHT22;7635;56.696;13.002;2023-04-24T08:35:43;10.30;99.90
15072;DHT22;7635;56.696;13.002;2023-04-24T08:38:18;10.40;99.90
15072;DHT22;7635;56.696;13.002;2023-04-24T08:40:54;10.40;99.90
15072;DHT22;7635;56.696;13.002;2023-04-24T08:46:36;10.50;99.90
15072;DHT22;7635;56.696;13.002;2023-04-24T08:49:09;10.60;99.90
15072;DHT22;7635;56.696;13.002;2023-04-24T08:51:44;10.60;99.90
15072;DHT22;7635;56.696;13.002;2023-04-24T08:54:24;10.60;99.90
15072;DHT22;7635;56.696;13.002;2023-04-24T08:57:02;10.60;99.90
15072;DHT22;7635;56.696;13.002;2023-04-24T08:59:40;10.70;99.90
15072;DHT22;7635;56.696;13.002;2023-04-24T09:02:12;10.70;99.90
15072;DHT22;7635;56.696;13.002;2023-04-24T09:04:46;10.70;99.90
15072;DHT22;7635;56.696;13.002;2023-04-24T09:07:16;10.80;99.90
15072;DHT22;7635;56.696;13.002;2023-04-24T09:09:50;10.80;99.90
15072;DHT22;7635;56.696;13.002;2023-04-24T09:12:30;10.80;99.90
15072;DHT22;7635;56.696;13.002;2023-04-24T09:15:05;10.70;99.90
15072;DHT22;7635;56.696;13.002;2023-04-24T09:17:55;10.70;99.90
15072;DHT22;7635;56.696;13.002;2023-04-24T09:20:27;10.70;99.90
15072;DHT22;7635;56.696;13.002;2023-04-24T09:23:08;10.70;99.90
15072;DHT22;7635;56.696;13.002;2023-04-24T09:25:42;10.70;99.90
15072;DHT22;7635;56.696;13.002;2023-04-24T09:28:19;10.70;99.90
15072;DHT22;7635;56.696;13.002;2023-04-24T09:31:21;10.60;99.90
15072;DHT22;7635;56.696;13.002;2023-04-24T09:33:57;10.70;99.90
15072;DHT22;7635;56.696;13.002;2023-04-24T09:36:34;10.70;99.90
15072;DHT22;7635;56.696;13.002;2023-04-24T09:39:30;10.70;99.90
15072;DHT22;7635;56.696;13.002;2023-04-24T09:42:01;10.80;99.90
15072;DHT22;7635;56.696;13.002;2023-04-24T09:44:42;10.80;99.90
15072;DHT22;7635;56.696;13.002;2023-04-24T09:47:35;10.90;99.90
15072;DHT22;7635;56.696;13.002;2023-04-24T09:50:21;11.00;99.90
15072;DHT22;7635;56.696;13.002;2023-04-24T09:53:09;11.10;99.90
15072;DHT22;7635;56.696;13.002;2023-04-24T09:55:49;11.20;99.90
15072;DHT22;7635;56.696;13.002;2023-04-24T09:58:35;11.30;99.90
15072;DHT22;7635;56.696;13.002;2023-04-24T10:01:16;11.40;99.90
15072;DHT22;7635;56.696;13.002;2023-04-24T10:06:45;11.70;99.90
15072;DHT22;7635;56.696;13.002;2023-04-24T10:12:36;12.30;99.90
15072;DHT22;7635;56.696;13.002;2023-04-24T10:15:12;12.60;99.90
15072;DHT22;7635;56.696;13.002;2023-04-24T10:17:47;12.80;99.90
15072;DHT22;7635;56.696;13.002;2023-04-24T10:24:01;12.90;99.90
15072;DHT22;7635;56.696;13.002;2023-04-24T10:26:45;12.90;99.90
15072;DHT22;7635;56.696;13.002;2023-04-24T10:29:19;13.00;99.90
15072;DHT22;7635;56.696;13.002;2023-04-24T10:32:18;13.30;99.90
15072;DHT22;7635;56.696;13.002;2023-04-24T10:37:57;13.70;99.90
15072;DHT22;7635;56.696;13.002;2023-04-24T10:40:39;13.90;99.90
15072;DHT22;7635;56.696;13.002;2023-04-24T10:44:04;14.00;99.90
15072;DHT22;7635;56.696;13.002;2023-04-24T10:46:54;14.00;99.90
15072;DHT22;7635;56.696;13.002;2023-04-24T10:49:38;14.30;99.90
15072;DHT22;7635;56.696;13.002;2023-04-24T10:52:09;14.50;99.90
15072;DHT22;7635;56.696;13.002;2023-04-24T10:54:52;14.80;99.90
15072;DHT22;7635;56.696;13.002;2023-04-24T10:57:35;15.10;99.90
15072;DHT22;7635;56.696;13.002;2023-04-24T11:00:55;15.50;99.90
15072;DHT22;7635;56.696;13.002;2023-04-24T11:03:29;15.40;99.90
15072;DHT22;7635;56.696;13.002;2023-04-24T11:06:30;15.50;99.90
15072;DHT22;7635;56.696;13.002;2023-04-24T11:09:10;15.50;99.90
15072;DHT22;7635;56.696;13.002;2023-04-24T11:12:02;15.50;99.90
15072;DHT22;7635;56.696;13.002;2023-04-24T11:15:12;15.70;99.90
15072;DHT22;7635;56.696;13.002;2023-04-24T11:17:51;16.10;99.90
15072;DHT22;7635;56.696;13.002;2023-04-24T11:20:27;16.20;99.90
15072;DHT22;7635;56.696;13.002;2023-04-24T11:23:03;16.40;99.90
15072;DHT22;7635;56.696;13.002;2023-04-24T11:25:43;16.40;99.90
15072;DHT22;7635;56.696;13.002;2023-04-24T11:31:40;16.70;99.90
15072;DHT22;7635;56.696;13.002;2023-04-24T11:34:28;16.70;99.90
15072;DHT22;7635;56.696;13.002;2023-04-24T11:37:04;16.60;99.90
15072;DHT22;7635;56.696;13.002;2023-04-24T11:39:39;16.50;99.90
15072;DHT22;7635;56.696;13.002;2023-04-24T11:42:17;16.50;99.90
15072;DHT22;7635;56.696;13.002;2023-04-24T11:44:49;16.30;99.90
15072;DHT22;7635;56.696;13.002;2023-04-24T11:47:28;16.20;99.90
15072;DHT22;7635;56.696;13.002;2023-04-24T11:50:07;16.20;99.90
15072;DHT22;7635;56.696;13.002;2023-04-24T11:52:40;15.90;99.90
15072;DHT22;7635;56.696;13.002;2023-04-24T11:55:24;15.80;99.90
15072;DHT22;7635;56.696;13.002;2023-04-24T11:58:22;15.60;99.90
15072;DHT22;7635;56.696;13.002;2023-04-24T12:01:07;15.30;99.90
15072;DHT22;7635;56.696;13.002;2023-04-24T12:03:39;15.30;99.90
15072;DHT22;7635;56.696;13.002;2023-04-24T12:06:15;15.20;99.90
15072;DHT22;7635;56.696;13.002;2023-04-24T12:08:49;15.00;99.90
15072;DHT22;7635;56.696;13.002;2023-04-24T12:11:24;14.80;99.90
15072;DHT22;7635;56.696;13.002;2023-04-24T12:14:09;14.60;99.90
15072;DHT22;7635;56.696;13.002;2023-04-24T12:16:47;14.50;99.90
15072;DHT22;7635;56.696;13.002;2023-04-24T12:19:23;14.40;99.90
15072;DHT22;7635;56.696;13.002;2023-04-24T12:22:01;14.40;99.90
15072;DHT22;7635;56.696;13.002;2023-04-24T12:27:23;14.50;99.90
15072;DHT22;7635;56.696;13.002;2023-04-24T12:30:16;14.70;99.90
15072;DHT22;7635;56.696;13.002;2023-04-24T12:32:50;14.90;99.90
15072;DHT22;7635;56.696;13.002;2023-04-24T12:36:07;14.90;99.90
15072;DHT22;7635;56.696;13.002;2023-04-24T12:38:36;14.90;99.90
15072;DHT22;7635;56.696;13.002;2023-04-24T12:41:20;14.90;99.90
15072;DHT22;7635;56.696;13.002;2023-04-24T12:43:57;15.00;99.90
15072;DHT22;7635;56.696;13.002;2023-04-24T12:46:51;15.00;99.90
15072;DHT22;7635;56.696;13.002;2023-04-24T12:52:30;15.20;99.90
15072;DHT22;7635;56.696;13.002;2023-04-24T12:55:06;15.50;99.90
15072;DHT22;7635;56.696;13.002;2023-04-24T13:01:15;15.90;99.90
15072;DHT22;7635;56.696;13.002;2023-04-24T13:03:44;16.10;99.90
15072;DHT22;7635;56.696;13.002;2023-04-24T13:06:18;16.20;99.90
15072;DHT22;7635;56.696;13.002;2023-04-24T13:08:47;16.20;99.90
15072;DHT22;7635;56.696;13.002;2023-04-24T13:11:26;16.20;99.90
15072;DHT22;7635;56.696;13.002;2023-04-24T13:13:57;16.20;99.90
15072;DHT22;7635;56.696;13.002;2023-04-24T13:16:30;16.00;99.90
15072;DHT22;7635;56.696;13.002;2023-04-24T13:19:04;15.90;99.90
15072;DHT22;7635;56.696;13.002;2023-04-24T13:21:34;15.80;99.90
15072;DHT22;7635;56.696;13.002;2023-04-24T13:24:10;15.60;99.90
15072;DHT22;7635;56.696;13.002;2023-04-24T13:26:54;15.50;99.90
15072;DHT22;7635;56.696;13.002;2023-04-24T13:29:38;15.30;99.90
15072;DHT22;7635;56.696;13.002;2023-04-24T13:32:22;15.10;99.90
15072;DHT22;7635;56.696;13.002;2023-04-24T13:34:51;15.00;99.90
15072;DHT22;7635;56.696;13.002;2023-04-24T13:37:18;15.00;99.90
15072;DHT22;7635;56.696;13.002;2023-04-24T13:40:02;14.90;99.90
15072;DHT22;7635;56.696;13.002;2023-04-24T13:43:03;15.00;99.90
15072;DHT22;7635;56.696;13.002;2023-04-24T13:45:55;14.90;99.90
15072;DHT22;7635;56.696;13.002;2023-04-24T13:51:55;14.70;99.90
15072;DHT22;7635;56.696;13.002;2023-04-24T13:54:49;14.70;99.90
15072;DHT22;7635;56.696;13.002;2023-04-24T13:57:23;14.80;99.90
15072;DHT22;7635;56.696;13.002;2023-04-24T14:00:07;14.90;99.90
15072;DHT22;7635;56.696;13.002;2023-04-24T14:02:44;15.00;99.90
15072;DHT22;7635;56.696;13.002;2023-04-24T14:05:17;15.00;99.90
15072;DHT22;7635;56.696;13.002;2023-04-24T14:07:48;15.00;99.90
15072;DHT22;7635;56.696;13.002;2023-04-24T14:10:34;15.00;99.90
15072;DHT22;7635;56.696;13.002;2023-04-24T14:13:02;15.10;99.90
15072;DHT22;7635;56.696;13.002;2023-04-24T14:15:30;15.10;99.90
15072;DHT22;7635;56.696;13.002;2023-04-24T14:18:03;15.20;99.90
15072;DHT22;7635;56.696;13.002;2023-04-24T14:20:46;15.20;99.90
15072;DHT22;7635;56.696;13.002;2023-04-24T14:23:27;15.20;99.90
15072;DHT22;7635;56.696;13.002;2023-04-24T14:29:40;15.20;99.90
15072;DHT22;7635;56.696;13.002;2023-04-24T14:32:14;15.10;99.90
15072;DHT22;7635;56.696;13.002;2023-04-24T14:34:42;15.10;99.90
15072;DHT22;7635;56.696;13.002;2023-04-24T14:37:14;15.10;99.90
15072;DHT22;7635;56.696;13.002;2023-04-24T14:39:42;15.10;99.90
15072;DHT22;7635;56.696;13.002;2023-04-24T14:42:15;15.00;99.90
15072;DHT22;7635;56.696;13.002;2023-04-24T14:45:03;15.00;99.90
15072;DHT22;7635;56.696;13.002;2023-04-24T14:47:48;14.90;99.90
15072;DHT22;7635;56.696;13.002;2023-04-24T14:50:19;14.80;99.90
15072;DHT22;7635;56.696;13.002;2023-04-24T14:52:55;14.80;99.90
15072;DHT22;7635;56.696;13.002;2023-04-24T14:55:35;14.80;99.90
15072;DHT22;7635;56.696;13.002;2023-04-24T14:58:06;14.70;99.90
15072;DHT22;7635;56.696;13.002;2023-04-24T15:00:39;14.60;99.90
15072;DHT22;7635;56.696;13.002;2023-04-24T15:03:22;14.60;99.90
15072;DHT22;7635;56.696;13.002;2023-04-24T15:06:04;14.50;99.90
15072;DHT22;7635;56.696;13.002;2023-04-24T15:08:40;14.50;99.90
15072;DHT22;7635;56.696;13.002;2023-04-24T15:11:13;14.40;99.90
15072;DHT22;7635;56.696;13.002;2023-04-24T15:13:46;14.40;99.90
15072;DHT22;7635;56.696;13.002;2023-04-24T15:16:28;14.40;99.90
15072;DHT22;7635;56.696;13.002;2023-04-24T15:19:17;14.40;99.90
15072;DHT22;7635;56.696;13.002;2023-04-24T15:21:47;14.30;99.90
15072;DHT22;7635;56.696;13.002;2023-04-24T15:24:32;14.30;99.90
15072;DHT22;7635;56.696;13.002;2023-04-24T15:27:08;14.30;99.90
15072;DHT22;7635;56.696;13.002;2023-04-24T15:32:30;14.20;99.90
15072;DHT22;7635;56.696;13.002;2023-04-24T15:35:07;14.20;99.90
15072;DHT22;7635;56.696;13.002;2023-04-24T15:37:40;14.20;99.90
15072;DHT22;7635;56.696;13.002;2023-04-24T15:40:16;14.20;99.90
15072;DHT22;7635;56.696;13.002;2023-04-24T15:42:46;14.20;99.90
15072;DHT22;7635;56.696;13.002;2023-04-24T15:45:22;14.20;99.90
15072;DHT22;7635;56.696;13.002;2023-04-24T15:47:52;14.20;99.90
15072;DHT22;7635;56.696;13.002;2023-04-24T15:53:26;14.10;99.90
15072;DHT22;7635;56.696;13.002;2023-04-24T15:56:08;14.10;99.90
15072;DHT22;7635;56.696;13.002;2023-04-24T16:02:01;14.10;99.90
15072;DHT22;7635;56.696;13.002;2023-04-24T16:04:35;14.00;99.90
15072;DHT22;7635;56.696;13.002;2023-04-24T16:07:23;14.00;99.90
15072;DHT22;7635;56.696;13.002;2023-04-24T16:10:03;14.00;99.90
15072;DHT22;7635;56.696;13.002;2023-04-24T16:12:34;14.00;99.90
15072;DHT22;7635;56.696;13.002;2023-04-24T16:15:02;13.90;99.90
15072;DHT22;7635;56.696;13.002;2023-04-24T16:17:33;13.90;99.90
15072;DHT22;7635;56.696;13.002;2023-04-24T16:20:10;13.90;99.90
15072;DHT22;7635;56.696;13.002;2023-04-24T16:22:41;13.90;99.90
15072;DHT22;7635;56.696;13.002;2023-04-24T16:25:13;13.90;99.90
15072;DHT22;7635;56.696;13.002;2023-04-24T16:27:50;13.90;99.90
15072;DHT22;7635;56.696;13.002;2023-04-24T16:30:22;13.80;99.90
15072;DHT22;7635;56.696;13.002;2023-04-24T16:32:53;13.80;99.90
15072;DHT22;7635;56.696;13.002;2023-04-24T16:38:53;13.70;99.90
15072;DHT22;7635;56.696;13.002;2023-04-24T16:41:14;13.60;99.90
15072;DHT22;7635;56.696;13.002;2023-04-24T16:43:48;13.60;99.90
15072;DHT22;7635;56.696;13.002;2023-04-24T16:46:16;13.50;99.90
15072;DHT22;7635;56.696;13.002;2023-04-24T16:48:46;13.50;99.90
15072;DHT22;7635;56.696;13.002;2023-04-24T16:51:22;13.50;99.90
15072;DHT22;7635;56.696;13.002;2023-04-24T16:54:05;13.40;99.90
15072;DHT22;7635;56.696;13.002;2023-04-24T16:56:33;13.40;99.90
15072;DHT22;7635;56.696;13.002;2023-04-24T16:59:02;13.30;99.90
15072;DHT22;7635;56.696;13.002;2023-04-24T17:01:37;13.30;99.90
15072;DHT22;7635;56.696;13.002;2023-04-24T17:04:05;13.30;99.90
15072;DHT22;7635;56.696;13.002;2023-04-24T17:06:32;13.30;99.90
15072;DHT22;7635;56.696;13.002;2023-04-24T17:09:07;13.30;99.90
15072;DHT22;7635;56.696;13.002;2023-04-24T17:11:37;13.20;99.90
15072;DHT22;7635;56.696;13.002;2023-04-24T17:14:08;13.20;99.90
15072;DHT22;7635;56.696;13.002;2023-04-24T17:16:38;13.10;99.90
15072;DHT22;7635;56.696;13.002;2023-04-24T17:19:12;13.10;99.90
15072;DHT22;7635;56.696;13.002;2023-04-24T17:21:42;13.10;99.90
15072;DHT22;7635;56.696;13.002;2023-04-24T17:24:15;13.10;99.90
15072;DHT22;7635;56.696;13.002;2023-04-24T17:26:45;13.00;99.90
15072;DHT22;7635;56.696;13.002;2023-04-24T17:29:19;13.00;99.90
15072;DHT22;7635;56.696;13.002;2023-04-24T17:31:47;13.00;99.90
15072;DHT22;7635;56.696;13.002;2023-04-24T17:34:17;12.90;99.90
15072;DHT22;7635;56.696;13.002;2023-04-24T17:36:45;12.90;99.90
15072;DHT22;7635;56.696;13.002;2023-04-24T17:39:18;12.80;99.90
15072;DHT22;7635;56.696;13.002;2023-04-24T17:41:46;12.80;99.90
15072;DHT22;7635;56.696;13.002;2023-04-24T17:44:15;12.70;99.90
15072;DHT22;7635;56.696;13.002;2023-04-24T17:47:10;12.70;99.90
15072;DHT22;7635;56.696;13.002;2023-04-24T17:49:38;12.70;99.90
15072;DHT22;7635;56.696;13.002;2023-04-24T17:52:09;12.60;99.90
15072;DHT22;7635;56.696;13.002;2023-04-24T17:54:41;12.50;99.90
15072;DHT22;7635;56.696;13.002;2023-04-24T17:57:08;12.50;99.90
15072;DHT22;7635;56.696;13.002;2023-04-24T17:59:37;12.40;99.90
15072;DHT22;7635;56.696;13.002;2023-04-24T18:02:26;12.40;99.90
15072;DHT22;7635;56.696;13.002;2023-04-24T18:48:39;11.60;99.90
15072;DHT22;7635;56.696;13.002;2023-04-24T18:52:07;11.50;99.90
15072;DHT22;7635;56.696;13.002;2023-04-24T18:54:44;11.50;99.90
15072;DHT22;7635;56.696;13.002;2023-04-24T18:57:41;11.50;99.90
15072;DHT22;7635;56.696;13.002;2023-04-24T19:00:22;11.40;99.90
15072;DHT22;7635;56.696;13.002;2023-04-24T19:06:36;11.30;99.90
15072;DHT22;7635;56.696;13.002;2023-04-24T19:15:34;11.10;99.90
15072;DHT22;7635;56.696;13.002;2023-04-24T19:25:16;10.90;99.90
15072;DHT22;7635;56.696;13.002;2023-04-24T19:53:36;10.70;99.90
15072;DHT22;7635;56.696;13.002;2023-04-24T20:30:05;10.10;99.90
15072;DHT22;7635;56.696;13.002;2023-04-24T20:32:38;10.10;99.90
15072;DHT22;7635;56.696;13.002;2023-04-24T20:35:09;10.00;99.90
15072;DHT22;7635;56.696;13.002;2023-04-24T20:37:45;10.00;99.90
15072;DHT22;7635;56.696;13.002;2023-04-24T20:40:17;10.00;99.90
15072;DHT22;7635;56.696;13.002;2023-04-24T20:43:10;10.00;99.90
15072;DHT22;7635;56.696;13.002;2023-04-24T20:45:42;9.90;99.90
15072;DHT22;7635;56.696;13.002;2023-04-24T20:51:49;9.90;99.90
15072;DHT22;7635;56.696;13.002;2023-04-24T20:54:25;9.80;99.90
15072;DHT22;7635;56.696;13.002;2023-04-24T20:57:13;9.80;99.90
15072;DHT22;7635;56.696;13.002;2023-04-24T20:59:53;9.90;99.90
15072;DHT22;7635;56.696;13.002;2023-04-24T21:02:42;9.90;99.90
15072;DHT22;7635;56.696;13.002;2023-04-24T21:05:48;9.90;99.90
15072;DHT22;7635;56.696;13.002;2023-04-24T21:08:11;9.90;99.90
15072;DHT22;7635;56.696;13.002;2023-04-24T21:10:49;9.80;99.90
15072;DHT22;7635;56.696;13.002;2023-04-24T21:15:46;9.80;99.90
15072;DHT22;7635;56.696;13.002;2023-04-24T21:17:00;9.80;99.90
15072;DHT22;7635;56.696;13.002;2023-04-24T21:20:04;9.80;99.90
15072;DHT22;7635;56.696;13.002;2023-04-24T21:22:39;9.80;99.90
15072;DHT22;7635;56.696;13.002;2023-04-24T21:25:12;9.80;99.90
15072;DHT22;7635;56.696;13.002;2023-04-24T21:28:12;9.80;99.90
15072;DHT22;7635;56.696;13.002;2023-04-24T21:30:42;9.80;99.90
15072;DHT22;7635;56.696;13.002;2023-04-24T21:33:19;9.80;99.90
15072;DHT22;7635;56.696;13.002;2023-04-24T21:36:00;9.80;99.90
15072;DHT22;7635;56.696;13.002;2023-04-24T21:39:13;9.80;99.90
15072;DHT22;7635;56.696;13.002;2023-04-24T21:41:49;9.70;99.90
15072;DHT22;7635;56.696;13.002;2023-04-24T21:51:16;9.70;99.90
15072;DHT22;7635;56.696;13.002;2023-04-24T21:53:57;9.70;99.90